Copperas Cove, Texas
Current Conditions -  °F | °C
As of 11:56 AM on Thursday 23 Oct 2014 (Local Time) from KHLR Reporting Station
Broken Clouds Broken Clouds  
Wind Chill: 78°   Ceiling: 11000
Heat Index: 80°   Visibility: 10mi
Dew Point: 62°   Wind: 0mph
Humidity: 58%   Direction: NA
Pressure: 30.16"   Gusts: NA
Location:  31.12°N, 97.9°W
Report Text: KHLR 231656Z 00000KT 10SM BKN110 26/17 A3016 RMK AO2 SLP235 T02560167 $
Loading
Personal Weather Stations






























Interactive Weather Map
Tropical Storm Tracking
New forecast layout! Learn more

10-Day Weather Forecast

Advertisements
Track Severe Weather on mobile